Forside
METAR-TAF:

METAR-TAF

Lufthavne :

Irkutsk, Rusland

Breddekreds: 52-16N, længdekreds: 104-19E, højde: 513 m

Aktuelle vejr

Denne rapport blev lavet for 48 minutter siden, kl. 07:30 UTC
Vind 2 kt fra varierende retninger
Temperatur -4°C
Fugtighed 49%
Tryk 1021 hPa
Sigt 10 km eller mere
ingen skyer under 1500m og ingen cumulonimbus

METAR: UIII 270730Z VRB01MPS CAVOK M04/M13 Q1021 R30/810550 NOSIG RMK QFE721/0961

Tid: 16:18 (08:18 UTC)

Vejrudsigter

Denne rapport blev lavet for 3 timer og 18 minutter siden, kl. 05:00 UTC
Foreløbig gælder fra 27 på 06 UTC til 28 på 06 UTC
Vind 6 kt fra sydøst
Sigt 10 km eller mere
ingen skyer under 1500m og ingen cumulonimbus

TAF: UIII 270500Z 2706/2806 14003MPS CAVOK

Vejrobservationer og prognoser fra mere end 4000 lufthavne (METAR og TAF).

De gule og røde prikker repræsenterer de meteorologiske stationer.

Flyt musen over at se navnet på stationen.

Så klik over at se vejr observationer og prognoser.

At skifte det kort: Klik på de grønne knapper med et sort kors for at zoome ind; på den grønne knap med en bindestreg for at zoome ud; eller på de grønne pile for tilstødende kort.


METAR-TAF: